sensor_id;sensor_type;location;lat;lon;timestamp;P1;durP1;ratioP1;P2;durP2;ratioP2
46493;SDS011;53214;49.314;6.280;2024-03-06T00:02:07;35.75;;;20.52;;
46493;SDS011;53214;49.314;6.280;2024-03-06T00:04:35;33.80;;;20.00;;
46493;SDS011;53214;49.314;6.280;2024-03-06T00:07:02;37.88;;;24.02;;
46493;SDS011;53214;49.314;6.280;2024-03-06T00:09:28;33.92;;;23.20;;
46493;SDS011;53214;49.314;6.280;2024-03-06T00:11:55;36.95;;;26.02;;
46493;SDS011;53214;49.314;6.280;2024-03-06T00:14:23;50.83;;;32.00;;
46493;SDS011;53214;49.314;6.280;2024-03-06T00:16:50;40.10;;;26.23;;
46493;SDS011;53214;49.314;6.280;2024-03-06T00:19:18;36.95;;;25.17;;
46493;SDS011;53214;49.314;6.280;2024-03-06T00:21:45;42.17;;;28.33;;
46493;SDS011;53214;49.314;6.280;2024-03-06T00:24:15;37.22;;;23.95;;
46493;SDS011;53214;49.314;6.280;2024-03-06T00:26:43;38.72;;;24.52;;
46493;SDS011;53214;49.314;6.280;2024-03-06T00:29:10;31.33;;;20.02;;
46493;SDS011;53214;49.314;6.280;2024-03-06T00:31:42;31.27;;;20.75;;
46493;SDS011;53214;49.314;6.280;2024-03-06T00:34:10;27.50;;;20.25;;
46493;SDS011;53214;49.314;6.280;2024-03-06T00:36:37;33.05;;;20.27;;
46493;SDS011;53214;49.314;6.280;2024-03-06T00:39:04;31.42;;;18.05;;
46493;SDS011;53214;49.314;6.280;2024-03-06T00:41:31;26.00;;;15.25;;
46493;SDS011;53214;49.314;6.280;2024-03-06T00:43:58;27.85;;;17.55;;
46493;SDS011;53214;49.314;6.280;2024-03-06T00:46:24;25.35;;;17.80;;
46493;SDS011;53214;49.314;6.280;2024-03-06T00:48:51;25.35;;;18.15;;
46493;SDS011;53214;49.314;6.280;2024-03-06T00:51:18;25.98;;;17.27;;
46493;SDS011;53214;49.314;6.280;2024-03-06T00:53:54;31.50;;;19.30;;
46493;SDS011;53214;49.314;6.280;2024-03-06T00:56:22;29.92;;;18.40;;
46493;SDS011;53214;49.314;6.280;2024-03-06T00:58:48;27.40;;;19.13;;
46493;SDS011;53214;49.314;6.280;2024-03-06T01:01:15;27.98;;;18.25;;
46493;SDS011;53214;49.314;6.280;2024-03-06T01:03:43;27.40;;;17.48;;
46493;SDS011;53214;49.314;6.280;2024-03-06T01:06:09;24.95;;;18.25;;
46493;SDS011;53214;49.314;6.280;2024-03-06T01:08:37;23.88;;;13.70;;
46493;SDS011;53214;49.314;6.280;2024-03-06T01:11:03;21.92;;;14.77;;
46493;SDS011;53214;49.314;6.280;2024-03-06T01:13:31;26.27;;;16.50;;
46493;SDS011;53214;49.314;6.280;2024-03-06T01:15:57;25.05;;;14.82;;
46493;SDS011;53214;49.314;6.280;2024-03-06T01:18:24;23.77;;;14.57;;
46493;SDS011;53214;49.314;6.280;2024-03-06T01:20:51;30.48;;;17.02;;
46493;SDS011;53214;49.314;6.280;2024-03-06T01:23:18;23.77;;;15.18;;
46493;SDS011;53214;49.314;6.280;2024-03-06T01:25:44;23.42;;;16.55;;
46493;SDS011;53214;49.314;6.280;2024-03-06T01:28:11;28.42;;;16.83;;
46493;SDS011;53214;49.314;6.280;2024-03-06T01:30:38;25.30;;;15.98;;
46493;SDS011;53214;49.314;6.280;2024-03-06T01:33:05;23.25;;;16.20;;
46493;SDS011;53214;49.314;6.280;2024-03-06T01:35:32;30.35;;;14.88;;
46493;SDS011;53214;49.314;6.280;2024-03-06T01:37:59;24.92;;;13.38;;
46493;SDS011;53214;49.314;6.280;2024-03-06T01:40:27;19.20;;;11.18;;
46493;SDS011;53214;49.314;6.280;2024-03-06T01:42:55;18.38;;;11.50;;
46493;SDS011;53214;49.314;6.280;2024-03-06T01:45:22;21.65;;;11.95;;
46493;SDS011;53214;49.314;6.280;2024-03-06T01:47:49;19.50;;;12.27;;
46493;SDS011;53214;49.314;6.280;2024-03-06T01:50:17;18.30;;;12.10;;
46493;SDS011;53214;49.314;6.280;2024-03-06T01:52:44;21.15;;;13.20;;
46493;SDS011;53214;49.314;6.280;2024-03-06T01:55:12;23.95;;;13.38;;
46493;SDS011;53214;49.314;6.280;2024-03-06T01:57:41;26.10;;;14.13;;
46493;SDS011;53214;49.314;6.280;2024-03-06T02:00:08;22.17;;;12.07;;
46493;SDS011;53214;49.314;6.280;2024-03-06T02:02:41;20.70;;;11.95;;
46493;SDS011;53214;49.314;6.280;2024-03-06T02:05:09;21.20;;;11.70;;
46493;SDS011;53214;49.314;6.280;2024-03-06T02:07:36;19.73;;;10.73;;
46493;SDS011;53214;49.314;6.280;2024-03-06T02:10:08;17.80;;;10.02;;
46493;SDS011;53214;49.314;6.280;2024-03-06T02:12:36;18.48;;;9.38;;
46493;SDS011;53214;49.314;6.280;2024-03-06T02:15:04;18.95;;;10.20;;
46493;SDS011;53214;49.314;6.280;2024-03-06T02:17:31;17.80;;;10.02;;
46493;SDS011;53214;49.314;6.280;2024-03-06T02:19:58;18.75;;;10.50;;
46493;SDS011;53214;49.314;6.280;2024-03-06T02:22:24;17.98;;;10.18;;
46493;SDS011;53214;49.314;6.280;2024-03-06T02:24:51;24.25;;;10.77;;
46493;SDS011;53214;49.314;6.280;2024-03-06T02:27:18;17.52;;;9.82;;
46493;SDS011;53214;49.314;6.280;2024-03-06T02:29:45;15.80;;;9.23;;
46493;SDS011;53214;49.314;6.280;2024-03-06T02:32:12;14.38;;;8.57;;
46493;SDS011;53214;49.314;6.280;2024-03-06T02:34:40;19.58;;;9.55;;
46493;SDS011;53214;49.314;6.280;2024-03-06T02:37:07;16.90;;;9.82;;
46493;SDS011;53214;49.314;6.280;2024-03-06T02:39:34;14.80;;;8.50;;
46493;SDS011;53214;49.314;6.280;2024-03-06T02:42:00;21.10;;;10.65;;
46493;SDS011;53214;49.314;6.280;2024-03-06T02:44:27;20.17;;;11.27;;
46493;SDS011;53214;49.314;6.280;2024-03-06T02:46:54;21.35;;;12.80;;
46493;SDS011;53214;49.314;6.280;2024-03-06T02:49:21;20.75;;;13.43;;
46493;SDS011;53214;49.314;6.280;2024-03-06T02:51:48;26.38;;;12.90;;
46493;SDS011;53214;49.314;6.280;2024-03-06T02:54:15;22.75;;;12.65;;
46493;SDS011;53214;49.314;6.280;2024-03-06T02:56:41;20.15;;;11.95;;
46493;SDS011;53214;49.314;6.280;2024-03-06T02:59:08;21.90;;;12.27;;
46493;SDS011;53214;49.314;6.280;2024-03-06T03:01:35;17.38;;;10.55;;
46493;SDS011;53214;49.314;6.280;2024-03-06T03:04:02;16.40;;;10.05;;
46493;SDS011;53214;49.314;6.280;2024-03-06T03:06:29;15.52;;;9.77;;
46493;SDS011;53214;49.314;6.280;2024-03-06T03:08:55;15.75;;;9.82;;
46493;SDS011;53214;49.314;6.280;2024-03-06T03:11:22;18.38;;;9.82;;
46493;SDS011;53214;49.314;6.280;2024-03-06T03:13:49;19.83;;;10.77;;
46493;SDS011;53214;49.314;6.280;2024-03-06T03:16:16;17.85;;;10.85;;
46493;SDS011;53214;49.314;6.280;2024-03-06T03:18:44;21.60;;;10.90;;
46493;SDS011;53214;49.314;6.280;2024-03-06T03:21:12;16.42;;;10.35;;
46493;SDS011;53214;49.314;6.280;2024-03-06T03:23:39;17.80;;;10.10;;
46493;SDS011;53214;49.314;6.280;2024-03-06T03:26:07;21.23;;;11.27;;
46493;SDS011;53214;49.314;6.280;2024-03-06T03:28:38;18.20;;;11.45;;
46493;SDS011;53214;49.314;6.280;2024-03-06T03:31:09;20.45;;;10.93;;
46493;SDS011;53214;49.314;6.280;2024-03-06T03:33:39;17.10;;;10.90;;
46493;SDS011;53214;49.314;6.280;2024-03-06T03:36:07;23.63;;;11.68;;
46493;SDS011;53214;49.314;6.280;2024-03-06T03:38:37;20.45;;;11.68;;
46493;SDS011;53214;49.314;6.280;2024-03-06T03:41:11;23.70;;;12.10;;
46493;SDS011;53214;49.314;6.280;2024-03-06T03:43:39;20.50;;;11.93;;
46493;SDS011;53214;49.314;6.280;2024-03-06T03:46:06;22.35;;;12.57;;
46493;SDS011;53214;49.314;6.280;2024-03-06T03:48:34;17.63;;;10.70;;
46493;SDS011;53214;49.314;6.280;2024-03-06T03:51:04;19.92;;;11.77;;
46493;SDS011;53214;49.314;6.280;2024-03-06T03:53:33;26.08;;;11.02;;
46493;SDS011;53214;49.314;6.280;2024-03-06T03:56:00;18.05;;;10.93;;
46493;SDS011;53214;49.314;6.280;2024-03-06T03:58:27;23.33;;;12.93;;
46493;SDS011;53214;49.314;6.280;2024-03-06T04:00:54;22.60;;;12.23;;
46493;SDS011;53214;49.314;6.280;2024-03-06T04:03:22;23.50;;;14.18;;
46493;SDS011;53214;49.314;6.280;2024-03-06T04:05:50;23.17;;;14.60;;
46493;SDS011;53214;49.314;6.280;2024-03-06T04:08:17;24.33;;;15.23;;
46493;SDS011;53214;49.314;6.280;2024-03-06T04:10:44;27.27;;;13.77;;
46493;SDS011;53214;49.314;6.280;2024-03-06T04:13:11;22.70;;;12.93;;
46493;SDS011;53214;49.314;6.280;2024-03-06T04:15:42;19.38;;;12.80;;
46493;SDS011;53214;49.314;6.280;2024-03-06T04:18:09;24.23;;;13.88;;
46493;SDS011;53214;49.314;6.280;2024-03-06T04:20:36;27.20;;;15.38;;
46493;SDS011;53214;49.314;6.280;2024-03-06T04:23:03;25.85;;;14.77;;
46493;SDS011;53214;49.314;6.280;2024-03-06T04:25:30;25.67;;;14.82;;
46493;SDS011;53214;49.314;6.280;2024-03-06T04:27:57;22.40;;;13.90;;
46493;SDS011;53214;49.314;6.280;2024-03-06T04:30:24;31.05;;;15.50;;
46493;SDS011;53214;49.314;6.280;2024-03-06T04:32:51;30.52;;;15.50;;
46493;SDS011;53214;49.314;6.280;2024-03-06T04:35:18;25.23;;;15.52;;
46493;SDS011;53214;49.314;6.280;2024-03-06T04:37:45;27.42;;;15.35;;
46493;SDS011;53214;49.314;6.280;2024-03-06T04:40:12;26.10;;;15.13;;
46493;SDS011;53214;49.314;6.280;2024-03-06T04:42:41;21.73;;;13.32;;
46493;SDS011;53214;49.314;6.280;2024-03-06T04:45:10;27.00;;;14.75;;
46493;SDS011;53214;49.314;6.280;2024-03-06T04:47:38;21.80;;;13.48;;
46493;SDS011;53214;49.314;6.280;2024-03-06T04:50:09;22.27;;;12.60;;
46493;SDS011;53214;49.314;6.280;2024-03-06T04:52:39;26.20;;;12.48;;
46493;SDS011;53214;49.314;6.280;2024-03-06T04:55:07;23.98;;;11.98;;
46493;SDS011;53214;49.314;6.280;2024-03-06T04:57:36;22.88;;;12.88;;
46493;SDS011;53214;49.314;6.280;2024-03-06T05:00:04;22.33;;;13.25;;
46493;SDS011;53214;49.314;6.280;2024-03-06T05:02:32;21.35;;;11.68;;
46493;SDS011;53214;49.314;6.280;2024-03-06T05:05:20;22.98;;;11.77;;
46493;SDS011;53214;49.314;6.280;2024-03-06T05:08:06;25.02;;;12.43;;
46493;SDS011;53214;49.314;6.280;2024-03-06T05:10:50;24.67;;;13.80;;
46493;SDS011;53214;49.314;6.280;2024-03-06T05:13:35;22.13;;;12.68;;
46493;SDS011;53214;49.314;6.280;2024-03-06T05:16:19;20.38;;;11.50;;
46493;SDS011;53214;49.314;6.280;2024-03-06T05:19:06;20.40;;;11.35;;
46493;SDS011;53214;49.314;6.280;2024-03-06T05:21:50;21.52;;;12.50;;
46493;SDS011;53214;49.314;6.280;2024-03-06T05:24:34;22.45;;;12.60;;
46493;SDS011;53214;49.314;6.280;2024-03-06T05:27:18;23.77;;;11.57;;
46493;SDS011;53214;49.314;6.280;2024-03-06T05:30:02;18.63;;;11.27;;
46493;SDS011;53214;49.314;6.280;2024-03-06T05:32:49;16.45;;;10.05;;
46493;SDS011;53214;49.314;6.280;2024-03-06T05:35:33;15.75;;;10.20;;
46493;SDS011;53214;49.314;6.280;2024-03-06T05:38:17;19.73;;;10.02;;
46493;SDS011;53214;49.314;6.280;2024-03-06T05:41:02;19.40;;;9.90;;
46493;SDS011;53214;49.314;6.280;2024-03-06T05:43:46;16.17;;;10.05;;
46493;SDS011;53214;49.314;6.280;2024-03-06T05:46:30;16.63;;;9.85;;
46493;SDS011;53214;49.314;6.280;2024-03-06T05:49:14;17.83;;;9.75;;
46493;SDS011;53214;49.314;6.280;2024-03-06T05:51:58;15.40;;;8.70;;
46493;SDS011;53214;49.314;6.280;2024-03-06T05:54:42;18.65;;;8.77;;
46493;SDS011;53214;49.314;6.280;2024-03-06T05:57:26;14.82;;;8.90;;
46493;SDS011;53214;49.314;6.280;2024-03-06T06:00:11;16.65;;;8.63;;
46493;SDS011;53214;49.314;6.280;2024-03-06T06:02:38;17.75;;;9.85;;
46493;SDS011;53214;49.314;6.280;2024-03-06T06:05:05;14.85;;;9.00;;
46493;SDS011;53214;49.314;6.280;2024-03-06T06:07:49;14.48;;;10.10;;
46493;SDS011;53214;49.314;6.280;2024-03-06T06:10:16;15.38;;;9.43;;
46493;SDS011;53214;49.314;6.280;2024-03-06T06:12:47;21.88;;;9.90;;
46493;SDS011;53214;49.314;6.280;2024-03-06T06:15:14;18.40;;;11.35;;
46493;SDS011;53214;49.314;6.280;2024-03-06T06:17:42;19.90;;;10.50;;
46493;SDS011;53214;49.314;6.280;2024-03-06T06:20:11;15.57;;;9.77;;
46493;SDS011;53214;49.314;6.280;2024-03-06T06:22:42;17.77;;;10.68;;
46493;SDS011;53214;49.314;6.280;2024-03-06T06:25:09;15.15;;;9.27;;
46493;SDS011;53214;49.314;6.280;2024-03-06T06:27:37;15.85;;;9.10;;
46493;SDS011;53214;49.314;6.280;2024-03-06T06:30:05;18.23;;;8.82;;
46493;SDS011;53214;49.314;6.280;2024-03-06T06:32:33;20.15;;;9.82;;
46493;SDS011;53214;49.314;6.280;2024-03-06T06:35:01;17.85;;;9.70;;
46493;SDS011;53214;49.314;6.280;2024-03-06T06:37:27;18.45;;;9.65;;
46493;SDS011;53214;49.314;6.280;2024-03-06T06:39:54;16.63;;;9.23;;
46493;SDS011;53214;49.314;6.280;2024-03-06T06:42:21;14.60;;;8.93;;
46493;SDS011;53214;49.314;6.280;2024-03-06T06:44:48;19.10;;;8.98;;
46493;SDS011;53214;49.314;6.280;2024-03-06T06:47:15;19.75;;;9.43;;
46493;SDS011;53214;49.314;6.280;2024-03-06T06:49:42;13.73;;;9.25;;
46493;SDS011;53214;49.314;6.280;2024-03-06T06:52:09;13.35;;;9.02;;
46493;SDS011;53214;49.314;6.280;2024-03-06T06:54:36;19.42;;;10.38;;
46493;SDS011;53214;49.314;6.280;2024-03-06T06:57:02;19.08;;;10.05;;
46493;SDS011;53214;49.314;6.280;2024-03-06T06:59:29;15.50;;;9.30;;
46493;SDS011;53214;49.314;6.280;2024-03-06T07:01:56;15.80;;;10.25;;
46493;SDS011;53214;49.314;6.280;2024-03-06T07:04:23;16.90;;;10.73;;
46493;SDS011;53214;49.314;6.280;2024-03-06T07:06:51;15.25;;;9.40;;
46493;SDS011;53214;49.314;6.280;2024-03-06T07:09:18;18.95;;;9.98;;
46493;SDS011;53214;49.314;6.280;2024-03-06T07:11:45;15.13;;;9.38;;
46493;SDS011;53214;49.314;6.280;2024-03-06T07:14:13;16.30;;;9.60;;
46493;SDS011;53214;49.314;6.280;2024-03-06T07:16:43;18.73;;;9.35;;
46493;SDS011;53214;49.314;6.280;2024-03-06T07:19:11;15.88;;;9.10;;
46493;SDS011;53214;49.314;6.280;2024-03-06T07:21:38;19.17;;;8.80;;
46493;SDS011;53214;49.314;6.280;2024-03-06T07:24:05;18.50;;;9.20;;
46493;SDS011;53214;49.314;6.280;2024-03-06T07:26:33;14.20;;;9.13;;
46493;SDS011;53214;49.314;6.280;2024-03-06T07:29:00;19.10;;;9.18;;
46493;SDS011;53214;49.314;6.280;2024-03-06T07:31:28;21.45;;;9.85;;
46493;SDS011;53214;49.314;6.280;2024-03-06T07:33:55;19.05;;;9.75;;
46493;SDS011;53214;49.314;6.280;2024-03-06T07:36:22;16.42;;;10.73;;
46493;SDS011;53214;49.314;6.280;2024-03-06T07:38:49;26.48;;;14.30;;
46493;SDS011;53214;49.314;6.280;2024-03-06T07:41:15;18.25;;;10.10;;
46493;SDS011;53214;49.314;6.280;2024-03-06T07:43:43;21.60;;;10.50;;
46493;SDS011;53214;49.314;6.280;2024-03-06T07:46:10;18.10;;;11.90;;
46493;SDS011;53214;49.314;6.280;2024-03-06T07:48:37;22.20;;;12.98;;
46493;SDS011;53214;49.314;6.280;2024-03-06T07:51:05;26.38;;;13.57;;
46493;SDS011;53214;49.314;6.280;2024-03-06T07:53:33;18.55;;;12.23;;
46493;SDS011;53214;49.314;6.280;2024-03-06T07:56:00;20.83;;;12.32;;
46493;SDS011;53214;49.314;6.280;2024-03-06T07:58:29;17.58;;;11.07;;
46493;SDS011;53214;49.314;6.280;2024-03-06T08:00:56;19.83;;;10.35;;
46493;SDS011;53214;49.314;6.280;2024-03-06T08:03:23;15.20;;;10.13;;
46493;SDS011;53214;49.314;6.280;2024-03-06T08:05:51;20.35;;;10.93;;
46493;SDS011;53214;49.314;6.280;2024-03-06T08:08:19;19.13;;;10.05;;
46493;SDS011;53214;49.314;6.280;2024-03-06T08:10:47;16.50;;;10.63;;
46493;SDS011;53214;49.314;6.280;2024-03-06T08:13:15;17.40;;;10.15;;
46493;SDS011;53214;49.314;6.280;2024-03-06T08:15:42;16.50;;;9.13;;
46493;SDS011;53214;49.314;6.280;2024-03-06T08:18:11;13.70;;;8.85;;
46493;SDS011;53214;49.314;6.280;2024-03-06T08:20:40;16.20;;;9.40;;
46493;SDS011;53214;49.314;6.280;2024-03-06T08:23:08;16.95;;;10.50;;
46493;SDS011;53214;49.314;6.280;2024-03-06T08:25:36;17.05;;;9.60;;
46493;SDS011;53214;49.314;6.280;2024-03-06T08:28:04;21.08;;;8.85;;
46493;SDS011;53214;49.314;6.280;2024-03-06T08:30:32;14.55;;;8.82;;
46493;SDS011;53214;49.314;6.280;2024-03-06T08:32:59;15.38;;;8.73;;
46493;SDS011;53214;49.314;6.280;2024-03-06T08:35:27;16.80;;;9.32;;
46493;SDS011;53214;49.314;6.280;2024-03-06T08:37:54;14.60;;;8.45;;
46493;SDS011;53214;49.314;6.280;2024-03-06T08:40:21;16.90;;;8.63;;
46493;SDS011;53214;49.314;6.280;2024-03-06T08:42:49;15.27;;;7.90;;
46493;SDS011;53214;49.314;6.280;2024-03-06T08:45:16;14.60;;;7.68;;
46493;SDS011;53214;49.314;6.280;2024-03-06T08:47:44;15.55;;;8.10;;
46493;SDS011;53214;49.314;6.280;2024-03-06T08:50:12;19.30;;;7.30;;
46493;SDS011;53214;49.314;6.280;2024-03-06T08:52:39;14.02;;;7.72;;
46493;SDS011;53214;49.314;6.280;2024-03-06T08:55:07;17.13;;;8.05;;
46493;SDS011;53214;49.314;6.280;2024-03-06T08:57:35;16.60;;;9.05;;
46493;SDS011;53214;49.314;6.280;2024-03-06T09:00:02;15.38;;;8.18;;
46493;SDS011;53214;49.314;6.280;2024-03-06T09:02:30;12.88;;;8.15;;
46493;SDS011;53214;49.314;6.280;2024-03-06T09:04:57;15.75;;;9.10;;
46493;SDS011;53214;49.314;6.280;2024-03-06T09:07:24;16.02;;;7.75;;
46493;SDS011;53214;49.314;6.280;2024-03-06T09:09:51;15.98;;;8.65;;
46493;SDS011;53214;49.314;6.280;2024-03-06T09:12:18;17.95;;;8.77;;
46493;SDS011;53214;49.314;6.280;2024-03-06T09:14:45;17.45;;;8.88;;
46493;SDS011;53214;49.314;6.280;2024-03-06T09:17:12;17.80;;;8.70;;
46493;SDS011;53214;49.314;6.280;2024-03-06T09:19:42;18.70;;;8.98;;
46493;SDS011;53214;49.314;6.280;2024-03-06T09:22:11;18.77;;;7.72;;
46493;SDS011;53214;49.314;6.280;2024-03-06T09:24:38;19.70;;;7.95;;
46493;SDS011;53214;49.314;6.280;2024-03-06T09:27:05;19.52;;;7.85;;
46493;SDS011;53214;49.314;6.280;2024-03-06T09:29:32;14.63;;;7.53;;
46493;SDS011;53214;49.314;6.280;2024-03-06T09:31:59;15.60;;;6.93;;
46493;SDS011;53214;49.314;6.280;2024-03-06T09:34:26;18.92;;;7.40;;
46493;SDS011;53214;49.314;6.280;2024-03-06T09:36:53;17.30;;;7.82;;
46493;SDS011;53214;49.314;6.280;2024-03-06T09:39:19;13.77;;;8.15;;
46493;SDS011;53214;49.314;6.280;2024-03-06T09:41:47;18.73;;;7.35;;
46493;SDS011;53214;49.314;6.280;2024-03-06T09:44:14;18.30;;;7.20;;
46493;SDS011;53214;49.314;6.280;2024-03-06T09:46:45;19.60;;;6.80;;
46493;SDS011;53214;49.314;6.280;2024-03-06T09:49:16;18.95;;;6.97;;
46493;SDS011;53214;49.314;6.280;2024-03-06T09:51:46;21.75;;;7.53;;
46493;SDS011;53214;49.314;6.280;2024-03-06T09:54:16;14.52;;;7.05;;
46493;SDS011;53214;49.314;6.280;2024-03-06T09:56:49;18.20;;;6.50;;
46493;SDS011;53214;49.314;6.280;2024-03-06T09:59:16;11.85;;;5.85;;
46493;SDS011;53214;49.314;6.280;2024-03-06T10:04:20;22.20;;;6.65;;
46493;SDS011;53214;49.314;6.280;2024-03-06T10:06:48;24.23;;;6.50;;
46493;SDS011;53214;49.314;6.280;2024-03-06T10:09:18;15.60;;;5.68;;
46493;SDS011;53214;49.314;6.280;2024-03-06T10:11:45;16.05;;;5.00;;
46493;SDS011;53214;49.314;6.280;2024-03-06T10:14:12;18.15;;;5.35;;
46493;SDS011;53214;49.314;6.280;2024-03-06T10:19:20;17.60;;;4.90;;
46493;SDS011;53214;49.314;6.280;2024-03-06T10:21:49;17.42;;;4.85;;
46493;SDS011;53214;49.314;6.280;2024-03-06T10:24:18;19.50;;;5.85;;
46493;SDS011;53214;49.314;6.280;2024-03-06T10:26:46;15.48;;;4.32;;
46493;SDS011;53214;49.314;6.280;2024-03-06T10:29:15;18.83;;;4.07;;
46493;SDS011;53214;49.314;6.280;2024-03-06T10:31:49;17.90;;;3.75;;
46493;SDS011;53214;49.314;6.280;2024-03-06T10:34:23;16.02;;;3.72;;
46493;SDS011;53214;49.314;6.280;2024-03-06T10:39:19;15.07;;;3.58;;
46493;SDS011;53214;49.314;6.280;2024-03-06T10:41:51;19.58;;;3.45;;
46493;SDS011;53214;49.314;6.280;2024-03-06T10:44:22;19.15;;;3.50;;
46493;SDS011;53214;49.314;6.280;2024-03-06T10:47:01;16.95;;;4.53;;
46493;SDS011;53214;49.314;6.280;2024-03-06T10:49:30;14.57;;;4.47;;
46493;SDS011;53214;49.314;6.280;2024-03-06T10:52:02;18.60;;;4.13;;
46493;SDS011;53214;49.314;6.280;2024-03-06T10:54:34;19.98;;;5.80;;
46493;SDS011;53214;49.314;6.280;2024-03-06T10:57:03;22.80;;;8.55;;
46493;SDS011;53214;49.314;6.280;2024-03-06T10:59:30;19.42;;;6.65;;
46493;SDS011;53214;49.314;6.280;2024-03-06T11:01:58;18.38;;;6.43;;
46493;SDS011;53214;49.314;6.280;2024-03-06T11:04:28;15.63;;;4.68;;
46493;SDS011;53214;49.314;6.280;2024-03-06T11:06:56;20.77;;;5.78;;
46493;SDS011;53214;49.314;6.280;2024-03-06T11:09:26;17.05;;;4.55;;
46493;SDS011;53214;49.314;6.280;2024-03-06T11:11:53;15.82;;;5.00;;
46493;SDS011;53214;49.314;6.280;2024-03-06T11:14:21;15.63;;;3.42;;
46493;SDS011;53214;49.314;6.280;2024-03-06T11:17:01;15.88;;;3.50;;
46493;SDS011;53214;49.314;6.280;2024-03-06T11:19:30;17.05;;;4.35;;
46493;SDS011;53214;49.314;6.280;2024-03-06T11:21:57;14.18;;;3.95;;
46493;SDS011;53214;49.314;6.280;2024-03-06T11:24:33;16.60;;;3.22;;
46493;SDS011;53214;49.314;6.280;2024-03-06T11:27:03;16.98;;;3.75;;
46493;SDS011;53214;49.314;6.280;2024-03-06T11:33:01;17.63;;;3.00;;
46493;SDS011;53214;49.314;6.280;2024-03-06T11:35:30;16.02;;;3.38;;
46493;SDS011;53214;49.314;6.280;2024-03-06T11:37:58;17.65;;;3.65;;
46493;SDS011;53214;49.314;6.280;2024-03-06T11:40:25;14.98;;;4.15;;
46493;SDS011;53214;49.314;6.280;2024-03-06T11:42:53;18.50;;;5.30;;
46493;SDS011;53214;49.314;6.280;2024-03-06T11:45:20;22.08;;;5.75;;
46493;SDS011;53214;49.314;6.280;2024-03-06T11:48:01;19.90;;;4.88;;
46493;SDS011;53214;49.314;6.280;2024-03-06T11:50:29;16.50;;;5.22;;
46493;SDS011;53214;49.314;6.280;2024-03-06T11:52:58;22.40;;;4.55;;
46493;SDS011;53214;49.314;6.280;2024-03-06T11:55:25;20.33;;;3.80;;
46493;SDS011;53214;49.314;6.280;2024-03-06T11:57:52;17.20;;;5.13;;
46493;SDS011;53214;49.314;6.280;2024-03-06T12:00:23;16.08;;;4.57;;
46493;SDS011;53214;49.314;6.280;2024-03-06T12:02:50;24.30;;;5.22;;
46493;SDS011;53214;49.314;6.280;2024-03-06T12:05:18;17.70;;;3.78;;
46493;SDS011;53214;49.314;6.280;2024-03-06T12:07:48;16.35;;;3.22;;
46493;SDS011;53214;49.314;6.280;2024-03-06T12:10:16;16.92;;;3.47;;
46493;SDS011;53214;49.314;6.280;2024-03-06T12:12:44;12.48;;;2.70;;
46493;SDS011;53214;49.314;6.280;2024-03-06T12:15:14;14.60;;;2.72;;
46493;SDS011;53214;49.314;6.280;2024-03-06T12:17:45;15.68;;;2.88;;
46493;SDS011;53214;49.314;6.280;2024-03-06T12:20:13;13.48;;;3.17;;
46493;SDS011;53214;49.314;6.280;2024-03-06T12:22:45;9.40;;;2.20;;
46493;SDS011;53214;49.314;6.280;2024-03-06T12:25:19;13.88;;;3.42;;
46493;SDS011;53214;49.314;6.280;2024-03-06T12:27:49;14.40;;;2.80;;
46493;SDS011;53214;49.314;6.280;2024-03-06T12:30:17;11.90;;;2.15;;
46493;SDS011;53214;49.314;6.280;2024-03-06T12:32:45;15.02;;;2.75;;
46493;SDS011;53214;49.314;6.280;2024-03-06T12:35:26;13.45;;;2.72;;
46493;SDS011;53214;49.314;6.280;2024-03-06T12:37:53;9.93;;;2.45;;
46493;SDS011;53214;49.314;6.280;2024-03-06T12:40:20;14.48;;;2.10;;
46493;SDS011;53214;49.314;6.280;2024-03-06T12:42:47;10.32;;;2.15;;
46493;SDS011;53214;49.314;6.280;2024-03-06T12:45:15;14.18;;;2.20;;
46493;SDS011;53214;49.314;6.280;2024-03-06T12:47:45;13.43;;;2.10;;
46493;SDS011;53214;49.314;6.280;2024-03-06T12:50:16;9.57;;;2.70;;
46493;SDS011;53214;49.314;6.280;2024-03-06T12:52:43;11.40;;;2.05;;
46493;SDS011;53214;49.314;6.280;2024-03-06T12:55:12;10.45;;;1.80;;
46493;SDS011;53214;49.314;6.280;2024-03-06T12:57:40;10.57;;;1.80;;
46493;SDS011;53214;49.314;6.280;2024-03-06T13:00:07;6.25;;;1.73;;
46493;SDS011;53214;49.314;6.280;2024-03-06T13:02:42;13.27;;;1.67;;
46493;SDS011;53214;49.314;6.280;2024-03-06T13:05:10;9.18;;;1.98;;
46493;SDS011;53214;49.314;6.280;2024-03-06T13:07:39;9.57;;;1.83;;
46493;SDS011;53214;49.314;6.280;2024-03-06T13:10:08;5.95;;;1.50;;
46493;SDS011;53214;49.314;6.280;2024-03-06T13:12:37;8.68;;;1.80;;
46493;SDS011;53214;49.314;6.280;2024-03-06T13:15:04;9.63;;;1.80;;
46493;SDS011;53214;49.314;6.280;2024-03-06T13:17:33;10.98;;;1.85;;
46493;SDS011;53214;49.314;6.280;2024-03-06T13:20:01;7.15;;;1.40;;
46493;SDS011;53214;49.314;6.280;2024-03-06T13:22:28;7.05;;;1.42;;
46493;SDS011;53214;49.314;6.280;2024-03-06T13:24:55;10.18;;;1.60;;
46493;SDS011;53214;49.314;6.280;2024-03-06T13:27:23;8.30;;;1.80;;
46493;SDS011;53214;49.314;6.280;2024-03-06T13:29:50;7.18;;;1.30;;
46493;SDS011;53214;49.314;6.280;2024-03-06T13:32:17;8.73;;;1.55;;
46493;SDS011;53214;49.314;6.280;2024-03-06T13:34:44;6.28;;;1.30;;
46493;SDS011;53214;49.314;6.280;2024-03-06T13:37:11;8.77;;;1.60;;
46493;SDS011;53214;49.314;6.280;2024-03-06T13:39:38;8.70;;;1.70;;
46493;SDS011;53214;49.314;6.280;2024-03-06T13:42:05;6.03;;;1.20;;
46493;SDS011;53214;49.314;6.280;2024-03-06T13:44:32;7.72;;;1.15;;
46493;SDS011;53214;49.314;6.280;2024-03-06T13:46:59;5.00;;;1.20;;
46493;SDS011;53214;49.314;6.280;2024-03-06T13:49:38;4.75;;;1.45;;
46493;SDS011;53214;49.314;6.280;2024-03-06T13:52:06;7.03;;;1.70;;
46493;SDS011;53214;49.314;6.280;2024-03-06T13:54:39;8.35;;;1.38;;
46493;SDS011;53214;49.314;6.280;2024-03-06T13:57:08;8.52;;;1.60;;
46493;SDS011;53214;49.314;6.280;2024-03-06T13:59:35;11.85;;;1.52;;
46493;SDS011;53214;49.314;6.280;2024-03-06T14:02:03;8.73;;;1.50;;
46493;SDS011;53214;49.314;6.280;2024-03-06T14:04:30;6.88;;;1.13;;
46493;SDS011;53214;49.314;6.280;2024-03-06T14:06:57;6.70;;;1.30;;
46493;SDS011;53214;49.314;6.280;2024-03-06T14:09:25;7.95;;;1.73;;
46493;SDS011;53214;49.314;6.280;2024-03-06T14:11:53;6.00;;;1.48;;
46493;SDS011;53214;49.314;6.280;2024-03-06T14:14:20;8.10;;;1.52;;
46493;SDS011;53214;49.314;6.280;2024-03-06T14:16:47;9.40;;;1.80;;
46493;SDS011;53214;49.314;6.280;2024-03-06T14:19:14;8.10;;;1.30;;
46493;SDS011;53214;49.314;6.280;2024-03-06T14:21:41;5.45;;;1.15;;
46493;SDS011;53214;49.314;6.280;2024-03-06T14:24:07;6.82;;;1.55;;
46493;SDS011;53214;49.314;6.280;2024-03-06T14:26:35;7.80;;;1.40;;
46493;SDS011;53214;49.314;6.280;2024-03-06T14:29:02;11.43;;;1.65;;
46493;SDS011;53214;49.314;6.280;2024-03-06T14:31:32;9.70;;;1.30;;
46493;SDS011;53214;49.314;6.280;2024-03-06T14:33:58;8.43;;;1.60;;
46493;SDS011;53214;49.314;6.280;2024-03-06T14:36:30;9.27;;;1.70;;
46493;SDS011;53214;49.314;6.280;2024-03-06T14:38:57;7.00;;;1.60;;
46493;SDS011;53214;49.314;6.280;2024-03-06T14:41:23;8.82;;;2.00;;
46493;SDS011;53214;49.314;6.280;2024-03-06T14:43:50;8.15;;;1.40;;
46493;SDS011;53214;49.314;6.280;2024-03-06T14:46:17;7.90;;;1.80;;
46493;SDS011;53214;49.314;6.280;2024-03-06T14:48:44;8.65;;;1.63;;
46493;SDS011;53214;49.314;6.280;2024-03-06T14:51:11;5.75;;;1.60;;
46493;SDS011;53214;49.314;6.280;2024-03-06T14:53:39;9.55;;;1.75;;